Time;durP1;ratioP1;P1;durP2;ratioP2;P2;SDS_P1;SDS_P2;PMS_P1;PMS_P2;Temp;Humidity;BMP_temperature;BMP_pressure;BME280_temperature;BME280_humidity;BME280_pressure;Samples;Min_cycle;Max_cycle;Signal;HPM_P1;HPM_P2
2021/07/18 00:00:57;;;;;;;20.60;14.68;;;;;;;;;;4949830;29;20035;-83
2021/07/18 00:03:42;;;;;;;17.23;13.55;;;;;;;;;;4951326;29;20020;-82
2021/07/18 00:06:28;;;;;;;21.90;14.27;;;;;;;;;;4950740;29;20082;-83
2021/07/18 00:09:13;;;;;;;22.80;15.05;;;;;;;;;;4951296;29;20024;-83
2021/07/18 00:11:58;;;;;;;20.13;14.57;;;;;;;;;;4954224;28;20011;-82
2021/07/18 00:14:43;;;;;;;17.02;13.48;;;;;;;;;;4970167;28;20022;-84
2021/07/18 00:17:29;;;;;;;20.48;14.18;;;;;;;;;;4967549;28;20053;-83
2021/07/18 00:20:15;;;;;;;19.13;14.13;;;;;;;;;;4968057;28;20023;-82
2021/07/18 00:23:00;;;;;;;18.02;13.48;;;;;;;;;;4969931;28;20054;-83
2021/07/18 00:25:45;;;;;;;19.15;13.40;;;;;;;;;;4970339;28;20045;-83
2021/07/18 00:28:31;;;;;;;19.48;13.52;;;;;;;;;;4969616;28;20019;-83
2021/07/18 00:31:16;;;;;;;15.43;13.18;;;;;;;;;;4969841;28;20193;-84
2021/07/18 00:34:02;;;;;;;18.67;13.98;;;;;;;;;;4968688;28;20018;-82
2021/07/18 00:36:47;;;;;;;20.52;13.25;;;;;;;;;;4969423;28;20055;-83
2021/07/18 00:39:32;;;;;;;19.27;13.85;;;;;;;;;;4967977;28;20473;-83
2021/07/18 00:42:17;;;;;;;17.40;13.52;;;;;;;;;;4969625;28;20062;-83
2021/07/18 00:45:03;;;;;;;17.35;13.13;;;;;;;;;;4967976;28;20019;-84
2021/07/18 00:47:49;;;;;;;16.50;12.95;;;;;;;;;;4970162;28;20031;-83
2021/07/18 00:50:34;;;;;;;19.45;12.85;;;;;;;;;;4969813;28;20081;-83
2021/07/18 00:53:19;;;;;;;20.08;13.75;;;;;;;;;;4969626;28;20031;-83
2021/07/18 00:56:05;;;;;;;18.77;13.75;;;;;;;;;;4956502;28;20034;-81
2021/07/18 00:58:54;;;;;;;19.35;12.73;;;;;;;;;;4969078;28;20031;-81
2021/07/18 01:01:39;;;;;;;18.65;11.90;;;;;;;;;;4969737;28;20023;-81
2021/07/18 01:04:24;;;;;;;16.45;11.88;;;;;;;;;;4969630;28;20381;-83
2021/07/18 01:07:10;;;;;;;14.02;11.57;;;;;;;;;;4968903;28;20082;-82
2021/07/18 01:09:55;;;;;;;20.13;11.80;;;;;;;;;;4969760;28;20229;-81
2021/07/18 01:12:40;;;;;;;17.65;12.88;;;;;;;;;;4968977;28;20057;-82
2021/07/18 01:15:26;;;;;;;16.50;12.98;;;;;;;;;;4969261;28;20030;-83
2021/07/18 01:18:12;;;;;;;15.35;12.10;;;;;;;;;;4969708;28;20095;-82
2021/07/18 01:20:57;;;;;;;17.60;12.32;;;;;;;;;;4967152;28;20037;-82
2021/07/18 01:23:42;;;;;;;17.92;12.85;;;;;;;;;;4968324;28;20049;-82
2021/07/18 01:26:27;;;;;;;13.80;11.13;;;;;;;;;;4969291;28;20031;-81
2021/07/18 01:29:13;;;;;;;18.80;12.35;;;;;;;;;;4969001;28;20031;-82
2021/07/18 01:31:59;;;;;;;14.45;11.13;;;;;;;;;;4967516;28;20034;-83
2021/07/18 01:34:44;;;;;;;18.95;11.15;;;;;;;;;;4968991;28;20348;-83
2021/07/18 01:37:29;;;;;;;17.45;11.35;;;;;;;;;;4966830;28;20029;-83
2021/07/18 01:40:14;;;;;;;15.55;11.73;;;;;;;;;;4968888;28;20039;-83
2021/07/18 01:43:00;;;;;;;15.80;11.25;;;;;;;;;;4968617;28;20031;-83
2021/07/18 01:45:45;;;;;;;23.85;12.40;;;;;;;;;;4968677;28;20149;-83
2021/07/18 01:48:30;;;;;;;12.98;10.05;;;;;;;;;;4968984;28;20027;-83
2021/07/18 01:51:25;;;;;;;12.85;9.77;;;;;;;;;;4968635;28;20030;-82
2021/07/18 01:54:11;;;;;;;18.15;11.43;;;;;;;;;;4968641;28;20058;-82
2021/07/18 01:56:56;;;;;;;16.45;10.75;;;;;;;;;;4968638;28;20082;-80
2021/07/18 01:59:41;;;;;;;13.13;9.13;;;;;;;;;;4967018;28;20033;-83
2021/07/18 02:02:26;;;;;;;11.48;9.23;;;;;;;;;;4968546;28;20164;-82
2021/07/18 02:05:12;;;;;;;16.90;8.82;;;;;;;;;;4968116;28;20023;-82
2021/07/18 02:07:58;;;;;;;17.30;8.88;;;;;;;;;;4967339;28;20034;-82
2021/07/18 02:10:44;;;;;;;17.35;10.90;;;;;;;;;;4968285;28;20035;-82
2021/07/18 02:13:29;;;;;;;16.67;10.75;;;;;;;;;;4965153;28;20594;-82
2021/07/18 02:16:14;;;;;;;14.50;9.35;;;;;;;;;;4962514;28;20027;-82
2021/07/18 02:19:07;;;;;;;14.95;9.02;;;;;;;;;;4949010;29;20023;-82
2021/07/18 02:21:52;;;;;;;13.05;8.75;;;;;;;;;;4949436;29;20019;-82
2021/07/18 02:24:37;;;;;;;14.68;9.05;;;;;;;;;;4948819;29;20102;-83
2021/07/18 02:27:22;;;;;;;12.07;9.02;;;;;;;;;;4949115;29;20029;-82
2021/07/18 02:30:08;;;;;;;11.48;7.78;;;;;;;;;;4950687;28;20023;-83
2021/07/18 02:32:54;;;;;;;12.50;8.43;;;;;;;;;;4968162;28;20485;-82
2021/07/18 02:35:39;;;;;;;14.07;9.20;;;;;;;;;;4971431;28;20134;-83
2021/07/18 02:38:25;;;;;;;12.57;7.85;;;;;;;;;;4972373;28;20030;-82
2021/07/18 02:41:12;;;;;;;11.88;8.35;;;;;;;;;;4971943;28;20034;-81
2021/07/18 02:43:57;;;;;;;12.25;8.02;;;;;;;;;;4972373;28;20027;-82
2021/07/18 02:46:42;;;;;;;15.27;8.38;;;;;;;;;;4972015;28;20037;-82
2021/07/18 02:49:27;;;;;;;11.85;7.28;;;;;;;;;;4972163;28;20026;-82
2021/07/18 02:52:13;;;;;;;14.30;8.70;;;;;;;;;;4972096;28;20014;-82
2021/07/18 02:54:58;;;;;;;13.15;7.68;;;;;;;;;;4971642;28;20027;-82
2021/07/18 02:57:43;;;;;;;9.65;7.43;;;;;;;;;;4971715;28;20351;-82
2021/07/18 03:00:28;;;;;;;10.20;6.95;;;;;;;;;;4969855;28;20101;-83
2021/07/18 03:03:13;;;;;;;11.40;7.45;;;;;;;;;;4971325;28;20102;-83
2021/07/18 03:05:58;;;;;;;14.25;6.65;;;;;;;;;;4971525;28;20066;-81
2021/07/18 03:08:44;;;;;;;11.70;7.78;;;;;;;;;;4970880;28;20019;-82
2021/07/18 03:11:29;;;;;;;11.45;7.43;;;;;;;;;;4971302;28;20469;-82
2021/07/18 03:14:14;;;;;;;11.02;7.82;;;;;;;;;;4968263;28;20117;-83
2021/07/18 03:16:59;;;;;;;11.80;7.85;;;;;;;;;;4952109;29;20023;-82
2021/07/18 03:19:45;;;;;;;10.55;7.25;;;;;;;;;;4951797;29;20035;-82
2021/07/18 03:22:32;;;;;;;15.98;7.15;;;;;;;;;;4948852;29;20525;-82
2021/07/18 03:25:18;;;;;;;13.40;6.93;;;;;;;;;;4951753;29;20066;-83
2021/07/18 03:28:03;;;;;;;12.60;7.38;;;;;;;;;;4948736;29;20141;-82
2021/07/18 03:30:48;;;;;;;11.98;7.22;;;;;;;;;;4952046;29;20456;-82
2021/07/18 03:33:34;;;;;;;10.23;6.75;;;;;;;;;;4951692;29;20027;-82
2021/07/18 03:36:19;;;;;;;11.52;6.65;;;;;;;;;;4948307;29;20035;-83
2021/07/18 03:39:04;;;;;;;10.65;6.50;;;;;;;;;;4950237;29;20474;-81
2021/07/18 03:41:49;;;;;;;11.13;5.80;;;;;;;;;;4951128;29;20461;-82
2021/07/18 03:44:36;;;;;;;12.13;7.35;;;;;;;;;;4951851;29;20422;-82
2021/07/18 03:47:22;;;;;;;9.73;6.45;;;;;;;;;;4950341;29;20083;-82
2021/07/18 03:50:07;;;;;;;12.38;5.70;;;;;;;;;;4951803;29;20023;-82
2021/07/18 03:52:53;;;;;;;10.95;6.00;;;;;;;;;;4951850;29;20023;-82
2021/07/18 03:55:39;;;;;;;9.85;5.82;;;;;;;;;;4951110;29;20054;-83
2021/07/18 03:58:24;;;;;;;9.43;5.20;;;;;;;;;;4951647;29;20031;-83
2021/07/18 04:01:11;;;;;;;8.23;5.03;;;;;;;;;;4951284;29;20546;-83
2021/07/18 04:03:56;;;;;;;11.93;6.28;;;;;;;;;;4949464;29;20438;-83
2021/07/18 04:06:41;;;;;;;11.55;6.32;;;;;;;;;;4950969;29;20465;-82
2021/07/18 04:09:27;;;;;;;12.65;5.93;;;;;;;;;;4951401;29;20474;-82
2021/07/18 04:12:12;;;;;;;9.70;5.03;;;;;;;;;;4956633;28;20046;-82
2021/07/18 04:14:57;;;;;;;12.60;5.03;;;;;;;;;;4970614;28;20015;-84
2021/07/18 04:17:42;;;;;;;10.13;5.32;;;;;;;;;;4968639;28;20059;-82
2021/07/18 04:20:27;;;;;;;7.47;5.22;;;;;;;;;;4969697;28;20023;-82
2021/07/18 04:23:14;;;;;;;12.00;5.10;;;;;;;;;;4970177;28;20744;-82
2021/07/18 04:25:59;;;;;;;10.60;6.00;;;;;;;;;;4969781;28;20417;-83
2021/07/18 04:28:44;;;;;;;6.88;4.70;;;;;;;;;;4956829;28;20025;-83
2021/07/18 04:31:29;;;;;;;8.15;4.78;;;;;;;;;;4955310;28;20129;-83
2021/07/18 04:34:15;;;;;;;8.43;5.18;;;;;;;;;;4956054;28;20614;-82
2021/07/18 04:37:00;;;;;;;10.68;4.97;;;;;;;;;;4969996;28;20030;-82
2021/07/18 04:39:45;;;;;;;11.13;5.38;;;;;;;;;;4968388;28;20237;-82
2021/07/18 04:42:30;;;;;;;9.07;5.18;;;;;;;;;;4969725;28;20126;-82
2021/07/18 04:45:16;;;;;;;15.57;5.63;;;;;;;;;;4969888;28;20034;-82
2021/07/18 04:48:01;;;;;;;9.15;4.55;;;;;;;;;;4954773;28;20015;-82
2021/07/18 04:50:47;;;;;;;12.93;5.03;;;;;;;;;;4969423;28;20034;-82
2021/07/18 04:53:32;;;;;;;9.48;4.78;;;;;;;;;;4969549;28;20442;-82
2021/07/18 04:56:17;;;;;;;9.15;5.20;;;;;;;;;;4969127;28;20067;-82
2021/07/18 04:59:03;;;;;;;10.52;6.25;;;;;;;;;;4969163;28;20090;-83
2021/07/18 05:01:48;;;;;;;8.88;5.00;;;;;;;;;;4968070;28;20038;-82
2021/07/18 05:04:33;;;;;;;8.30;4.63;;;;;;;;;;4969275;28;20019;-82
2021/07/18 05:07:18;;;;;;;7.90;4.65;;;;;;;;;;4969079;28;20121;-82
2021/07/18 05:10:05;;;;;;;7.88;4.38;;;;;;;;;;4969434;28;20038;-83
2021/07/18 05:12:51;;;;;;;13.75;5.65;;;;;;;;;;4969014;28;20077;-81
2021/07/18 05:15:36;;;;;;;7.38;3.88;;;;;;;;;;4963514;28;20035;-82
2021/07/18 05:18:21;;;;;;;4.97;3.55;;;;;;;;;;4949707;29;20049;-82
2021/07/18 05:21:07;;;;;;;7.18;3.78;;;;;;;;;;4949427;29;20394;-82
2021/07/18 05:23:52;;;;;;;6.30;3.63;;;;;;;;;;4949909;29;20027;-83
2021/07/18 05:26:37;;;;;;;9.23;4.05;;;;;;;;;;4949470;29;20118;-82
2021/07/18 05:29:22;;;;;;;12.48;3.95;;;;;;;;;;4949405;29;20037;-82
2021/07/18 05:32:08;;;;;;;10.23;3.60;;;;;;;;;;4949985;29;20031;-83
2021/07/18 05:34:53;;;;;;;5.88;3.35;;;;;;;;;;4949112;29;20529;-82
2021/07/18 05:37:38;;;;;;;7.15;3.42;;;;;;;;;;4936351;29;20438;-83
2021/07/18 05:40:23;;;;;;;8.00;3.17;;;;;;;;;;4949484;29;20023;-83
2021/07/18 05:43:08;;;;;;;7.47;3.40;;;;;;;;;;4949346;29;20023;-82
2021/07/18 05:45:53;;;;;;;5.75;2.90;;;;;;;;;;4935721;29;20542;-83
2021/07/18 05:48:39;;;;;;;5.70;3.03;;;;;;;;;;4949597;29;20470;-82
2021/07/18 05:51:24;;;;;;;6.35;2.65;;;;;;;;;;4949358;29;20118;-83
2021/07/18 05:54:09;;;;;;;6.90;3.50;;;;;;;;;;4949578;29;20078;-83
2021/07/18 05:56:54;;;;;;;4.38;2.92;;;;;;;;;;4936149;29;20110;-82
2021/07/18 05:59:39;;;;;;;5.72;3.20;;;;;;;;;;4948869;29;20059;-83
2021/07/18 06:02:25;;;;;;;6.65;2.88;;;;;;;;;;4949759;29;20042;-81
2021/07/18 06:05:10;;;;;;;6.82;2.85;;;;;;;;;;4949018;28;20023;-81
2021/07/18 06:07:55;;;;;;;7.18;3.13;;;;;;;;;;4949141;29;20058;-81
2021/07/18 06:10:40;;;;;;;9.88;3.50;;;;;;;;;;4942308;28;20086;-82
2021/07/18 06:13:26;;;;;;;14.45;3.05;;;;;;;;;;4970965;28;20025;-82
2021/07/18 06:16:11;;;;;;;4.25;2.65;;;;;;;;;;4969114;28;20086;-82
2021/07/18 06:18:56;;;;;;;5.47;2.60;;;;;;;;;;4955958;29;20140;-83
2021/07/18 06:21:41;;;;;;;7.25;2.72;;;;;;;;;;4955514;28;20027;-83
2021/07/18 06:24:26;;;;;;;5.63;2.65;;;;;;;;;;4955580;29;20110;-83
2021/07/18 06:27:12;;;;;;;5.13;2.63;;;;;;;;;;4955657;29;20031;-83
2021/07/18 06:29:57;;;;;;;5.80;2.45;;;;;;;;;;4954914;29;20466;-83
2021/07/18 06:32:42;;;;;;;5.25;2.22;;;;;;;;;;4955591;29;20033;-83
2021/07/18 06:35:28;;;;;;;5.03;2.33;;;;;;;;;;4955581;28;20031;-83
2021/07/18 06:38:13;;;;;;;6.07;2.65;;;;;;;;;;4955340;28;20125;-83
2021/07/18 06:40:58;;;;;;;5.25;2.70;;;;;;;;;;4955498;28;20031;-82
2021/07/18 06:43:43;;;;;;;8.13;3.22;;;;;;;;;;4942343;29;20402;-83
2021/07/18 06:46:30;;;;;;;5.15;2.47;;;;;;;;;;4955388;28;20114;-83
2021/07/18 06:49:15;;;;;;;8.82;3.90;;;;;;;;;;4954142;29;20121;-84
2021/07/18 06:52:00;;;;;;;6.55;2.35;;;;;;;;;;4955398;29;20106;-82
2021/07/18 06:54:45;;;;;;;8.77;2.38;;;;;;;;;;4953580;28;20038;-83
2021/07/18 06:57:31;;;;;;;8.20;2.72;;;;;;;;;;4955557;28;20422;-84
2021/07/18 07:00:16;;;;;;;6.03;2.60;;;;;;;;;;4955031;28;20485;-83
2021/07/18 07:03:02;;;;;;;5.82;2.85;;;;;;;;;;4955308;29;20031;-83
2021/07/18 07:05:47;;;;;;;4.90;2.70;;;;;;;;;;4942147;29;20039;-84
2021/07/18 07:08:32;;;;;;;6.47;3.08;;;;;;;;;;4954906;29;20031;-83
2021/07/18 07:11:19;;;;;;;4.65;2.65;;;;;;;;;;4954913;28;20093;-83
2021/07/18 07:14:04;;;;;;;7.22;2.60;;;;;;;;;;4973052;28;20069;-83
2021/07/18 07:16:49;;;;;;;6.97;2.72;;;;;;;;;;4955117;29;20110;-83
2021/07/18 07:19:34;;;;;;;7.95;3.42;;;;;;;;;;4953695;29;20386;-82
2021/07/18 07:22:20;;;;;;;6.40;2.45;;;;;;;;;;4948933;29;20110;-85
2021/07/18 07:25:09;;;;;;;5.88;2.53;;;;;;;;;;4951850;29;20426;-83
2021/07/18 07:27:54;;;;;;;5.38;2.47;;;;;;;;;;4951845;29;20430;-83
2021/07/18 07:30:39;;;;;;;7.63;3.10;;;;;;;;;;4950438;29;20425;-83
2021/07/18 07:33:25;;;;;;;6.55;3.10;;;;;;;;;;4938558;29;20119;-83
2021/07/18 07:36:10;;;;;;;5.30;2.63;;;;;;;;;;4951808;29;20484;-83
2021/07/18 07:38:55;;;;;;;5.22;2.53;;;;;;;;;;4951832;29;20251;-83
2021/07/18 07:41:40;;;;;;;8.40;2.80;;;;;;;;;;4951941;29;20174;-84
2021/07/18 07:44:26;;;;;;;6.70;2.63;;;;;;;;;;4951500;29;20019;-83
2021/07/18 07:47:11;;;;;;;8.35;2.47;;;;;;;;;;4951587;29;20031;-83
2021/07/18 07:49:56;;;;;;;6.28;2.65;;;;;;;;;;4950064;29;20422;-83
2021/07/18 07:52:41;;;;;;;5.55;2.42;;;;;;;;;;4951118;29;20059;-83
2021/07/18 07:55:28;;;;;;;7.38;2.75;;;;;;;;;;4949710;29;20377;-83
2021/07/18 07:58:13;;;;;;;5.30;2.50;;;;;;;;;;4951325;29;20034;-83
2021/07/18 08:00:59;;;;;;;9.85;2.72;;;;;;;;;;4949106;29;20520;-84
2021/07/18 08:03:45;;;;;;;6.43;3.05;;;;;;;;;;4951726;29;20513;-83
2021/07/18 08:06:30;;;;;;;5.50;2.95;;;;;;;;;;4950805;29;20137;-83
2021/07/18 08:09:15;;;;;;;5.05;2.60;;;;;;;;;;4950939;29;20039;-84
2021/07/18 08:12:00;;;;;;;6.10;2.92;;;;;;;;;;4955664;28;20022;-83
2021/07/18 08:14:46;;;;;;;9.80;6.28;;;;;;;;;;4969939;28;20494;-83
2021/07/18 08:17:31;;;;;;;8.60;5.10;;;;;;;;;;4970261;28;20034;-82
2021/07/18 08:20:18;;;;;;;4.35;2.38;;;;;;;;;;4957022;28;20027;-82
2021/07/18 08:23:04;;;;;;;5.57;2.80;;;;;;;;;;4969630;28;20500;-82
2021/07/18 08:25:49;;;;;;;7.70;3.10;;;;;;;;;;4970372;28;20126;-82
2021/07/18 08:28:38;;;;;;;8.88;3.15;;;;;;;;;;4970234;28;20027;-82
2021/07/18 08:31:23;;;;;;;6.63;2.78;;;;;;;;;;4969842;28;20487;-82
2021/07/18 08:34:08;;;;;;;9.05;2.78;;;;;;;;;;4970297;28;20101;-82
2021/07/18 08:36:54;;;;;;;7.38;3.30;;;;;;;;;;4969612;28;20061;-82
2021/07/18 08:39:39;;;;;;;5.75;2.70;;;;;;;;;;4967883;28;20485;-82
2021/07/18 08:42:24;;;;;;;10.15;5.38;;;;;;;;;;4970028;28;20023;-82
2021/07/18 08:45:10;;;;;;;12.05;6.10;;;;;;;;;;4969385;28;20469;-81
2021/07/18 08:47:55;;;;;;;5.90;2.65;;;;;;;;;;4969944;28;20081;-82
2021/07/18 08:50:41;;;;;;;4.85;2.60;;;;;;;;;;4970147;28;20035;-82
2021/07/18 08:53:26;;;;;;;8.07;2.80;;;;;;;;;;4969603;28;20201;-82
2021/07/18 08:56:11;;;;;;;6.35;2.92;;;;;;;;;;4956542;28;20106;-82
2021/07/18 08:58:57;;;;;;;7.75;2.75;;;;;;;;;;4969635;28;20030;-82
2021/07/18 09:01:43;;;;;;;7.72;2.88;;;;;;;;;;4969426;28;20102;-83
2021/07/18 09:04:28;;;;;;;7.28;2.90;;;;;;;;;;4969776;28;20037;-85
2021/07/18 09:07:18;;;;;;;6.47;3.30;;;;;;;;;;4968944;28;20043;-83
2021/07/18 09:10:04;;;;;;;6.90;2.80;;;;;;;;;;4967801;28;20034;-83
2021/07/18 09:13:02;;;;;;;12.93;9.15;;;;;;;;;;4968932;28;20432;-83
2021/07/18 09:15:47;;;;;;;7.50;3.38;;;;;;;;;;4959932;28;20025;-83
2021/07/18 09:18:32;;;;;;;5.20;3.00;;;;;;;;;;4949419;29;20384;-83
2021/07/18 09:21:18;;;;;;;6.32;2.42;;;;;;;;;;4949785;29;20393;-83
2021/07/18 09:24:16;;;;;;;12.57;2.97;;;;;;;;;;4950085;29;20364;-82
2021/07/18 09:27:20;;;;;;;7.07;3.00;;;;;;;;;;4950257;29;20070;-82
2021/07/18 09:30:10;;;;;;;8.65;2.75;;;;;;;;;;4949849;29;20353;-82
2021/07/18 09:32:55;;;;;;;9.95;2.83;;;;;;;;;;4949568;29;20052;-83
2021/07/18 09:35:40;;;;;;;8.93;2.80;;;;;;;;;;4950002;29;20039;-82
2021/07/18 09:38:26;;;;;;;12.93;8.10;;;;;;;;;;4949478;29;20492;-83
2021/07/18 09:41:16;;;;;;;11.25;8.45;;;;;;;;;;4949716;29;20068;-83
2021/07/18 09:44:01;;;;;;;7.78;4.13;;;;;;;;;;4948854;28;20114;-84
2021/07/18 09:46:46;;;;;;;6.20;2.75;;;;;;;;;;4946256;29;20382;-83
2021/07/18 09:49:35;;;;;;;7.90;2.85;;;;;;;;;;4949771;29;20549;-82
2021/07/18 09:52:22;;;;;;;6.10;2.70;;;;;;;;;;4949661;29;20027;-84
2021/07/18 09:55:18;;;;;;;7.35;2.80;;;;;;;;;;4946565;29;20070;-82
2021/07/18 09:58:03;;;;;;;8.07;2.75;;;;;;;;;;4949636;29;20502;-84
2021/07/18 10:00:49;;;;;;;8.57;3.42;;;;;;;;;;4948066;29;20924;-82
2021/07/18 10:03:34;;;;;;;6.78;2.65;;;;;;;;;;4949648;29;20030;-83
2021/07/18 10:06:20;;;;;;;6.68;2.55;;;;;;;;;;4949467;29;20055;-83
2021/07/18 10:09:10;;;;;;;5.65;2.78;;;;;;;;;;4936163;29;20043;-83
2021/07/18 10:11:55;;;;;;;;;;;;;;;;;;4953320;28;20154;-83
2021/07/18 10:14:41;;;;;;;7.30;3.08;;;;;;;;;;4968805;28;19914;-84
2021/07/18 10:17:27;;;;;;;5.00;2.55;;;;;;;;;;4968511;28;20022;-85
2021/07/18 10:20:13;;;;;;;4.30;2.58;;;;;;;;;;4966642;28;20625;-83
2021/07/18 10:22:58;;;;;;;7.85;3.40;;;;;;;;;;4968667;28;20085;-83
2021/07/18 10:25:44;;;;;;;6.85;3.03;;;;;;;;;;4968201;28;20023;-84
2021/07/18 10:28:30;;;;;;;9.38;3.03;;;;;;;;;;4969076;28;20079;-84
2021/07/18 10:31:21;;;;;;;3.88;2.35;;;;;;;;;;4968634;28;20027;-83
2021/07/18 10:34:07;;;;;;;7.00;2.75;;;;;;;;;;4968772;28;20034;-84
2021/07/18 10:36:52;;;;;;;5.32;2.85;;;;;;;;;;4968522;28;20058;-83
2021/07/18 10:39:42;;;;;;;5.63;3.10;;;;;;;;;;4968113;28;20031;-82
2021/07/18 10:42:31;;;;;;;7.30;2.72;;;;;;;;;;4968559;28;20026;-83
2021/07/18 10:45:29;;;;;;;6.38;2.78;;;;;;;;;;4954826;28;20034;-81
2021/07/18 10:48:14;;;;;;;8.75;3.30;;;;;;;;;;4967927;28;20062;-83
2021/07/18 10:50:59;;;;;;;6.75;2.78;;;;;;;;;;4966491;28;20027;-83
2021/07/18 10:53:45;;;;;;;6.40;2.70;;;;;;;;;;4968224;28;20033;-84
2021/07/18 10:56:59;;;;;;;6.78;2.97;;;;;;;;;;4970508;28;20023;-82
2021/07/18 10:59:44;;;;;;;8.40;5.20;;;;;;;;;;4964268;28;20146;-82
2021/07/18 11:02:33;;;;;;;9.02;3.50;;;;;;;;;;4971553;28;20022;-82
2021/07/18 11:05:19;;;;;;;;;;;;;;;;;;4972179;28;20035;-82
2021/07/18 11:08:05;;;;;;;5.68;2.88;;;;;;;;;;4971604;28;19961;-82
2021/07/18 11:10:54;;;;;;;6.55;3.45;;;;;;;;;;4969650;28;20109;-83
2021/07/18 11:13:59;;;;;;;7.95;3.28;;;;;;;;;;4971582;28;20027;-82
2021/07/18 11:16:45;;;;;;;5.32;2.83;;;;;;;;;;4952115;29;20486;-82
2021/07/18 11:19:37;;;;;;;6.07;2.85;;;;;;;;;;4951693;29;20394;-82
2021/07/18 11:22:41;;;;;;;6.20;3.30;;;;;;;;;;4952059;29;20507;-82
2021/07/18 11:25:43;;;;;;;8.23;3.03;;;;;;;;;;4951876;29;20022;-83
2021/07/18 11:28:39;;;;;;;5.72;2.55;;;;;;;;;;4952139;29;20031;-83
2021/07/18 11:31:25;;;;;;;9.02;3.13;;;;;;;;;;4950623;29;20055;-83
2021/07/18 11:34:11;;;;;;;4.75;2.60;;;;;;;;;;4951753;29;20023;-84
2021/07/18 11:37:00;;;;;;;11.10;3.13;;;;;;;;;;4948596;29;20110;-83
2021/07/18 11:39:46;;;;;;;5.30;2.97;;;;;;;;;;4951066;29;20162;-83
2021/07/18 11:42:31;;;;;;;8.15;3.00;;;;;;;;;;4951738;29;20035;-83
2021/07/18 11:45:16;;;;;;;7.10;3.00;;;;;;;;;;4951757;29;20247;-83
2021/07/18 11:48:01;;;;;;;6.55;4.03;;;;;;;;;;4951207;29;20019;-84
2021/07/18 11:50:47;;;;;;;7.43;2.85;;;;;;;;;;4950032;29;20027;-84
2021/07/18 11:53:32;;;;;;;6.78;3.42;;;;;;;;;;4938304;29;20039;-82
2021/07/18 11:56:30;;;;;;;9.60;3.75;;;;;;;;;;4950951;29;20061;-83
2021/07/18 11:59:20;;;;;;;7.83;3.23;;;;;;;;;;4949540;29;21014;-82
2021/07/18 12:02:06;;;;;;;9.73;3.40;;;;;;;;;;4951323;29;20512;-82
2021/07/18 12:05:01;;;;;;;7.03;3.25;;;;;;;;;;4951169;29;20019;-84
2021/07/18 12:07:47;;;;;;;7.43;3.55;;;;;;;;;;4917974;29;20538;-82
2021/07/18 12:10:32;;;;;;;6.43;3.38;;;;;;;;;;4918626;29;20035;-81
2021/07/18 12:13:31;;;;;;;7.18;4.05;;;;;;;;;;4932819;29;20027;-82
2021/07/18 12:16:16;;;;;;;9.93;5.15;;;;;;;;;;4931639;29;20043;-83
2021/07/18 12:19:02;;;;;;;12.43;4.32;;;;;;;;;;4917005;29;20023;-82
2021/07/18 12:21:49;;;;;;;9.88;5.60;;;;;;;;;;4918356;29;20027;-82
2021/07/18 12:24:42;;;;;;;8.25;5.00;;;;;;;;;;4916945;29;20086;-82
2021/07/18 12:27:27;;;;;;;10.38;6.10;;;;;;;;;;4918103;29;20416;-82
2021/07/18 12:30:12;;;;;;;10.85;5.93;;;;;;;;;;4918616;29;20336;-83
2021/07/18 12:33:09;;;;;;;12.25;6.70;;;;;;;;;;4918682;29;20027;-82
2021/07/18 12:36:02;;;;;;;10.88;7.03;;;;;;;;;;4918830;29;20038;-83
2021/07/18 12:38:47;;;;;;;10.60;7.07;;;;;;;;;;4916424;29;20030;-83
2021/07/18 12:41:32;;;;;;;13.15;6.07;;;;;;;;;;4918591;29;20032;-84
2021/07/18 12:44:18;;;;;;;11.73;6.63;;;;;;;;;;4918147;29;20027;-84
2021/07/18 12:47:17;;;;;;;11.15;6.03;;;;;;;;;;4917897;29;20031;-84
2021/07/18 12:50:08;;;;;;;13.07;7.78;;;;;;;;;;4918052;29;20032;-83
2021/07/18 12:52:56;;;;;;;14.18;7.95;;;;;;;;;;4918119;29;20035;-82
2021/07/18 12:55:46;;;;;;;15.35;8.27;;;;;;;;;;4918034;29;20450;-83
2021/07/18 12:58:33;;;;;;;14.30;9.75;;;;;;;;;;4918290;29;20102;-84
2021/07/18 13:01:25;;;;;;;17.27;12.90;;;;;;;;;;4917638;29;20368;-84
2021/07/18 13:04:10;;;;;;;12.77;9.75;;;;;;;;;;4918176;29;20043;-84
2021/07/18 13:06:55;;;;;;;15.27;9.05;;;;;;;;;;4941601;29;20059;-83
2021/07/18 13:09:40;;;;;;;13.00;8.35;;;;;;;;;;4950191;29;20110;-83
2021/07/18 13:12:26;;;;;;;13.77;8.40;;;;;;;;;;4957829;28;20050;-83
2021/07/18 13:15:12;;;;;;;15.30;10.88;;;;;;;;;;4949895;28;20375;-83
2021/07/18 13:17:59;;;;;;;16.52;11.10;;;;;;;;;;4949960;28;20426;-83
2021/07/18 13:20:44;;;;;;;19.48;12.40;;;;;;;;;;4949134;29;20020;-82
2021/07/18 13:23:29;;;;;;;15.93;11.23;;;;;;;;;;4950019;29;20105;-83
2021/07/18 13:26:33;;;;;;;20.08;11.80;;;;;;;;;;4949726;29;20070;-82
2021/07/18 13:29:19;;;;;;;15.25;12.02;;;;;;;;;;4948206;29;20074;-83
2021/07/18 13:32:09;;;;;;;18.05;12.52;;;;;;;;;;4949581;29;20101;-82
2021/07/18 13:34:58;;;;;;;17.00;11.50;;;;;;;;;;4949774;29;20033;-82
2021/07/18 13:37:43;;;;;;;;;;;;;;;;;;4950139;29;20075;-83
2021/07/18 13:40:36;;;;;;;18.13;13.05;;;;;;;;;;4949763;29;20008;-82
2021/07/18 13:43:23;;;;;;;17.30;11.45;;;;;;;;;;4949642;29;20019;-82
2021/07/18 13:46:09;;;;;;;18.48;13.95;;;;;;;;;;4950046;29;20106;-82
2021/07/18 13:48:54;;;;;;;19.40;12.00;;;;;;;;;;4949422;29;20167;-82
2021/07/18 13:51:39;;;;;;;17.25;12.60;;;;;;;;;;4949637;29;20019;-83
2021/07/18 13:54:25;;;;;;;18.60;13.35;;;;;;;;;;4949791;29;20039;-83
2021/07/18 13:57:10;;;;;;;15.48;12.35;;;;;;;;;;4949362;29;20023;-83
2021/07/18 13:59:55;;;;;;;16.65;11.48;;;;;;;;;;4949420;29;20035;-82
2021/07/18 14:02:40;;;;;;;16.75;12.32;;;;;;;;;;4949727;29;20046;-82
2021/07/18 14:05:29;;;;;;;14.65;11.90;;;;;;;;;;4949063;28;20446;-83
2021/07/18 14:08:14;;;;;;;15.07;11.37;;;;;;;;;;4949488;29;20207;-82
2021/07/18 14:10:59;;;;;;;15.77;12.07;;;;;;;;;;4948834;29;20314;-82
2021/07/18 14:13:44;;;;;;;18.35;12.77;;;;;;;;;;4967053;28;20457;-82
2021/07/18 14:16:30;;;;;;;17.85;13.40;;;;;;;;;;4962755;28;20027;-82
2021/07/18 14:19:15;;;;;;;21.10;14.65;;;;;;;;;;4947129;29;20071;-83
2021/07/18 14:22:00;;;;;;;21.33;15.68;;;;;;;;;;4949421;29;20027;-82
2021/07/18 14:24:45;;;;;;;22.15;15.65;;;;;;;;;;4947531;29;20030;-82
2021/07/18 14:27:30;;;;;;;21.20;15.57;;;;;;;;;;4948898;29;20027;-82
2021/07/18 14:30:17;;;;;;;20.70;15.38;;;;;;;;;;4948298;28;20031;-82
2021/07/18 14:33:02;;;;;;;20.67;15.95;;;;;;;;;;4953176;29;20045;-81
2021/07/18 14:35:50;;;;;;;17.88;14.90;;;;;;;;;;4952834;29;20023;-82
2021/07/18 14:38:35;;;;;;;17.20;14.30;;;;;;;;;;4951555;29;20027;-82
2021/07/18 14:41:20;;;;;;;22.20;15.15;;;;;;;;;;4948955;29;20118;-82
2021/07/18 14:44:05;;;;;;;19.85;15.77;;;;;;;;;;4952569;29;20533;-83
2021/07/18 14:46:51;;;;;;;20.02;15.25;;;;;;;;;;4952791;29;20038;-82
2021/07/18 14:49:36;;;;;;;22.83;15.35;;;;;;;;;;4952326;29;20037;-82
2021/07/18 14:52:21;;;;;;;17.63;14.45;;;;;;;;;;4952739;29;20114;-83
2021/07/18 14:55:07;;;;;;;18.27;14.57;;;;;;;;;;4952598;29;20027;-82
2021/07/18 14:57:52;;;;;;;22.70;15.90;;;;;;;;;;4952248;29;20367;-83
2021/07/18 15:00:37;;;;;;;17.38;15.27;;;;;;;;;;4952524;29;20058;-83
2021/07/18 15:03:23;;;;;;;20.88;16.08;;;;;;;;;;4950633;29;20034;-82
2021/07/18 15:06:08;;;;;;;23.05;16.80;;;;;;;;;;4952038;29;20146;-82
2021/07/18 15:08:53;;;;;;;18.23;14.80;;;;;;;;;;4949137;29;20118;-81
2021/07/18 15:11:38;;;;;;;17.65;15.18;;;;;;;;;;4953106;28;20118;-82
2021/07/18 15:14:24;;;;;;;16.38;13.20;;;;;;;;;;4969808;28;20014;-83
2021/07/18 15:17:09;;;;;;;20.20;15.15;;;;;;;;;;4971407;28;20042;-83
2021/07/18 15:19:54;;;;;;;17.98;15.20;;;;;;;;;;4969327;28;20078;-83
2021/07/18 15:22:40;;;;;;;20.30;15.68;;;;;;;;;;4971421;28;20441;-82
2021/07/18 15:25:25;;;;;;;20.88;16.05;;;;;;;;;;4969629;28;20259;-83
2021/07/18 15:28:10;;;;;;;19.17;15.60;;;;;;;;;;4971077;28;20177;-83
2021/07/18 15:30:55;;;;;;;20.30;14.98;;;;;;;;;;4971229;28;20030;-83
2021/07/18 15:33:40;;;;;;;17.05;13.77;;;;;;;;;;4971213;28;20027;-83
2021/07/18 15:36:25;;;;;;;19.85;13.68;;;;;;;;;;4970681;28;20046;-82
2021/07/18 15:39:11;;;;;;;18.02;13.00;;;;;;;;;;4971198;28;20027;-83
2021/07/18 15:41:56;;;;;;;18.23;14.10;;;;;;;;;;4969546;28;20512;-82
2021/07/18 15:44:41;;;;;;;21.20;15.88;;;;;;;;;;4970613;28;20367;-83
2021/07/18 15:47:29;;;;;;;17.55;14.10;;;;;;;;;;4970933;28;20516;-83
2021/07/18 15:50:15;;;;;;;19.50;15.03;;;;;;;;;;4968507;28;20026;-83
2021/07/18 15:53:00;;;;;;;22.88;17.13;;;;;;;;;;4970425;28;20093;-83
2021/07/18 15:55:47;;;;;;;20.25;15.27;;;;;;;;;;4967059;28;20546;-82
2021/07/18 15:58:32;;;;;;;19.38;15.82;;;;;;;;;;4970375;28;20141;-82
2021/07/18 16:01:17;;;;;;;23.15;14.30;;;;;;;;;;4970395;28;20083;-83
2021/07/18 16:04:04;;;;;;;19.00;14.38;;;;;;;;;;4970438;28;20039;-83
2021/07/18 16:06:49;;;;;;;21.38;14.80;;;;;;;;;;4970193;28;20158;-82
2021/07/18 16:09:35;;;;;;;17.80;14.30;;;;;;;;;;4970758;28;20164;-83
2021/07/18 16:12:20;;;;;;;17.38;12.77;;;;;;;;;;4970346;28;20106;-83
2021/07/18 16:15:07;;;;;;;18.70;14.35;;;;;;;;;;4970431;28;20039;-83
2021/07/18 16:17:52;;;;;;;17.02;13.02;;;;;;;;;;4970675;28;20034;-83
2021/07/18 16:20:37;;;;;;;15.75;12.80;;;;;;;;;;4969892;28;20039;-83
2021/07/18 16:23:23;;;;;;;17.15;13.07;;;;;;;;;;4970520;28;20037;-83
2021/07/18 16:26:08;;;;;;;15.75;12.73;;;;;;;;;;4970700;28;20023;-83